Time;durP1;ratioP1;P1;durP2;ratioP2;P2;SDS_P1;SDS_P2;PMS_P1;PMS_P2;Temp;Humidity;BMP_temperature;BMP_pressure;BME280_temperature;BME280_humidity;BME280_pressure;Samples;Min_cycle;Max_cycle;Signal;HPM_P1;HPM_P2
2022/03/20 00:02:03;;;;;;;8.30;4.70;;;6.20;99.90;;;;;;5054819;28;20076;-77
2022/03/20 00:04:29;;;;;;;9.93;4.93;;;6.10;99.90;;;;;;5054935;28;20053;-77
2022/03/20 00:06:55;;;;;;;9.43;4.47;;;6.10;99.90;;;;;;5054889;28;20117;-77
2022/03/20 00:09:21;;;;;;;10.80;5.40;;;;;;;;;;5053324;28;20045;-77
2022/03/20 00:11:47;;;;;;;10.15;5.15;;;;;;;;;;5054806;28;20057;-77
2022/03/20 00:14:13;;;;;;;10.73;5.40;;;6.20;99.90;;;;;;5036761;28;20052;-77
2022/03/20 00:16:39;;;;;;;11.57;4.93;;;6.20;99.90;;;;;;5054817;28;20049;-77
2022/03/20 00:19:05;;;;;;;10.97;5.37;;;6.20;99.90;;;;;;5053334;28;20070;-77
2022/03/20 00:21:32;;;;;;;8.35;5.15;;;6.10;99.90;;;;;;5054797;28;20388;-77
2022/03/20 00:23:58;;;;;;;9.10;5.50;;;6.10;99.90;;;;;;5053643;28;20179;-77
2022/03/20 00:26:23;;;;;;;10.50;5.00;;;6.00;99.90;;;;;;5054490;28;20045;-77
2022/03/20 00:28:49;;;;;;;11.30;5.30;;;6.00;99.90;;;;;;5053251;28;20053;-77
2022/03/20 00:31:15;;;;;;;8.70;4.50;;;6.00;99.90;;;;;;5052978;28;20114;-77
2022/03/20 00:33:41;;;;;;;9.30;5.00;;;5.90;99.90;;;;;;5054385;28;20041;-77
2022/03/20 00:36:06;;;;;;;12.63;5.67;;;5.90;99.90;;;;;;5053062;28;20052;-77
2022/03/20 00:38:32;;;;;;;9.17;5.43;;;5.90;99.90;;;;;;5053471;28;20053;-77
2022/03/20 00:40:58;;;;;;;12.30;5.33;;;5.90;99.90;;;;;;5054135;28;20045;-77
2022/03/20 00:43:24;;;;;;;9.93;4.87;;;5.90;99.90;;;;;;5053861;28;20049;-77
2022/03/20 00:45:49;;;;;;;9.43;5.50;;;5.80;99.90;;;;;;5053036;28;20041;-77
2022/03/20 00:48:15;;;;;;;9.37;5.50;;;5.80;99.90;;;;;;5052827;28;20056;-77
2022/03/20 00:50:41;;;;;;;10.90;5.70;;;5.70;99.90;;;;;;5053054;28;20049;-77
2022/03/20 00:53:07;;;;;;;11.57;5.87;;;5.70;99.90;;;;;;5053672;28;20452;-77
2022/03/20 00:55:33;;;;;;;11.10;5.30;;;5.60;99.90;;;;;;5052584;28;20053;-77
2022/03/20 00:57:58;;;;;;;10.95;5.95;;;5.60;99.90;;;;;;5054085;28;20045;-77
2022/03/20 01:00:24;;;;;;;11.23;6.80;;;5.70;99.90;;;;;;5053955;28;20078;-77
2022/03/20 01:02:50;;;;;;;8.20;5.50;;;5.60;99.90;;;;;;5053829;28;20056;-77
2022/03/20 01:05:16;;;;;;;11.07;5.33;;;5.60;99.90;;;;;;5053484;28;20056;-77
2022/03/20 01:07:43;;;;;;;8.13;4.90;;;5.60;99.90;;;;;;5054027;28;20045;-77
2022/03/20 01:10:09;;;;;;;10.55;5.95;;;5.60;99.90;;;;;;5053383;28;20045;-77
2022/03/20 01:12:37;;;;;;;9.32;5.65;;;5.60;99.90;;;;;;5053587;28;20056;-77
2022/03/20 01:15:06;;;;;;;12.15;5.53;;;5.60;99.90;;;;;;5053519;28;20459;-82
2022/03/20 01:17:33;;;;;;;10.15;5.45;;;5.60;99.90;;;;;;5053549;28;20068;-77
2022/03/20 01:19:58;;;;;;;10.88;5.68;;;5.50;99.90;;;;;;5052246;28;20047;-77
2022/03/20 01:22:24;;;;;;;10.93;5.77;;;5.50;99.90;;;;;;5053143;28;20048;-77
2022/03/20 01:24:50;;;;;;;10.23;5.20;;;5.60;99.90;;;;;;5053482;28;20049;-77
2022/03/20 01:27:16;;;;;;;9.27;5.30;;;5.50;99.90;;;;;;5053133;28;20088;-77
2022/03/20 01:29:42;;;;;;;11.10;5.65;;;5.40;99.90;;;;;;5053410;28;20044;-76
2022/03/20 01:32:10;;;;;;;11.17;5.60;;;5.40;99.90;;;;;;5051879;28;20128;-76
2022/03/20 01:34:36;;;;;;;11.40;6.03;;;5.40;99.90;;;;;;5052222;28;20088;-76
2022/03/20 01:37:02;;;;;;;11.65;6.10;;;5.40;99.90;;;;;;5053275;28;20045;-76
2022/03/20 01:39:28;;;;;;;11.05;6.22;;;5.30;99.90;;;;;;5051630;28;20460;-76
2022/03/20 01:41:54;;;;;;;11.60;5.77;;;5.30;99.90;;;;;;5051681;28;20085;-76
2022/03/20 01:44:19;;;;;;;15.23;6.13;;;5.40;99.90;;;;;;5051268;28;20049;-76
2022/03/20 01:46:45;;;;;;;9.77;6.13;;;;;;;;;;5035183;28;20192;-76
2022/03/20 01:49:11;;;;;;;12.77;6.22;;;5.40;99.90;;;;;;5052783;28;20194;-77
2022/03/20 01:54:21;;;;;;;13.30;6.38;;;5.30;99.90;;;;;;5052702;28;20052;-77
2022/03/20 01:56:51;;;;;;;12.20;6.17;;;5.30;99.90;;;;;;5051933;28;20048;-76
2022/03/20 01:59:18;;;;;;;10.70;6.38;;;5.20;99.90;;;;;;5052612;28;20047;-76
2022/03/20 02:01:44;;;;;;;12.90;6.35;;;5.30;99.90;;;;;;5052811;28;20106;-77
2022/03/20 02:04:14;;;;;;;12.70;6.78;;;5.20;99.90;;;;;;5052950;28;20172;-78
2022/03/20 02:06:42;;;;;;;10.38;6.07;;;5.30;99.90;;;;;;5053046;28;20051;-77
2022/03/20 02:09:08;;;;;;;11.85;6.57;;;5.20;99.90;;;;;;5052758;28;20077;-77
2022/03/20 02:11:34;;;;;;;10.95;6.90;;;5.20;99.90;;;;;;5052629;28;20045;-77
2022/03/20 02:14:00;;;;;;;12.50;6.70;;;5.10;99.90;;;;;;5052761;28;20045;-76
2022/03/20 02:16:26;;;;;;;14.60;6.70;;;5.10;99.90;;;;;;5052150;28;20558;-76
2022/03/20 02:18:52;;;;;;;10.35;6.35;;;5.10;99.90;;;;;;5052629;28;20055;-76
2022/03/20 02:21:39;;;;;;;12.47;6.10;;;5.10;99.90;;;;;;5052401;28;20045;-77
2022/03/20 02:24:25;;;;;;;12.20;7.28;;;5.10;99.90;;;;;;5052894;28;20044;-76
2022/03/20 02:26:51;;;;;;;13.20;6.90;;;5.30;99.90;;;;;;5052742;28;20071;-76
2022/03/20 02:29:16;;;;;;;15.07;7.73;;;5.20;99.90;;;;;;5052328;28;20477;-77
2022/03/20 02:31:42;;;;;;;11.50;6.57;;;5.00;99.90;;;;;;5052606;28;20045;-76
2022/03/20 02:34:08;;;;;;;14.17;7.53;;;5.10;99.90;;;;;;5052550;28;20369;-76
2022/03/20 02:36:36;;;;;;;14.30;7.90;;;5.20;99.90;;;;;;5052233;28;20052;-76
2022/03/20 02:39:03;;;;;;;14.10;7.82;;;4.90;99.90;;;;;;5052503;28;20049;-76
2022/03/20 02:41:31;;;;;;;14.23;7.43;;;5.00;99.90;;;;;;5034721;28;20052;-76
2022/03/20 02:43:57;;;;;;;15.25;7.28;;;5.00;99.90;;;;;;5052680;28;20041;-76
2022/03/20 02:46:23;;;;;;;13.68;7.28;;;5.00;99.90;;;;;;5051174;28;20057;-76
2022/03/20 02:48:49;;;;;;;12.70;7.13;;;4.80;99.90;;;;;;5052589;28;20045;-76
2022/03/20 02:51:17;;;;;;;14.90;7.70;;;4.80;99.90;;;;;;5050903;28;20173;-77
2022/03/20 02:53:42;;;;;;;11.75;7.18;;;4.70;99.90;;;;;;5035363;28;20507;-76
2022/03/20 02:56:10;;;;;;;13.83;7.80;;;4.70;99.90;;;;;;5056287;28;20069;-76
2022/03/20 02:58:36;;;;;;;16.65;7.65;;;4.80;99.90;;;;;;5055746;28;20055;-76
2022/03/20 03:01:02;;;;;;;16.13;7.53;;;4.70;99.90;;;;;;5056379;28;20060;-76
2022/03/20 03:03:27;;;;;;;16.43;8.47;;;4.60;99.90;;;;;;5056997;28;20167;-77
2022/03/20 03:05:56;;;;;;;14.67;8.23;;;4.60;99.90;;;;;;5056402;28;20076;-76
2022/03/20 03:11:06;;;;;;;14.38;8.40;;;4.50;99.90;;;;;;5055029;28;20053;-76
2022/03/20 03:13:34;;;;;;;15.17;8.30;;;4.60;99.90;;;;;;5038030;28;20044;-76
2022/03/20 03:16:02;;;;;;;16.15;7.90;;;4.50;99.90;;;;;;5054905;28;20103;-76
2022/03/20 03:18:28;;;;;;;14.48;8.65;;;4.50;99.90;;;;;;5055477;28;20088;-76
2022/03/20 03:20:55;;;;;;;14.23;8.73;;;4.50;99.90;;;;;;5055494;28;20547;-76
2022/03/20 03:23:24;;;;;;;14.98;8.65;;;4.60;99.90;;;;;;5055521;28;20053;-77
2022/03/20 03:25:50;;;;;;;14.27;8.32;;;4.50;99.90;;;;;;5054663;28;20037;-76
2022/03/20 03:28:16;;;;;;;12.17;8.03;;;4.50;99.90;;;;;;5055569;28;20106;-76
2022/03/20 03:30:44;;;;;;;14.33;7.90;;;4.50;99.90;;;;;;5055538;28;20071;-76
2022/03/20 03:33:11;;;;;;;14.50;8.25;;;4.50;99.90;;;;;;5055597;28;20334;-76
2022/03/20 03:35:46;;;;;;;14.02;8.18;;;4.40;99.90;;;;;;5054105;28;20053;-76
2022/03/20 03:38:14;;;;;;;15.23;9.43;;;4.50;99.90;;;;;;5055712;28;20370;-76
2022/03/20 03:40:42;;;;;;;13.60;8.60;;;4.50;99.90;;;;;;5055015;28;20041;-76
2022/03/20 03:43:09;;;;;;;17.00;8.68;;;4.30;99.90;;;;;;5055309;28;20053;-76
2022/03/20 03:45:35;;;;;;;14.93;8.88;;;4.40;99.90;;;;;;5054946;28;20056;-76
2022/03/20 03:48:01;;;;;;;16.67;9.82;;;4.40;99.90;;;;;;5054166;28;20044;-76
2022/03/20 03:50:28;;;;;;;14.02;9.43;;;4.40;99.90;;;;;;5054881;28;20175;-76
2022/03/20 03:52:54;;;;;;;16.92;9.13;;;4.30;99.90;;;;;;5055314;28;20482;-76
2022/03/20 03:55:19;;;;;;;14.17;9.23;;;4.30;99.90;;;;;;5054989;28;20191;-82
2022/03/20 03:57:47;;;;;;;15.37;8.83;;;4.20;99.90;;;;;;5055083;28;20242;-76
2022/03/20 04:00:15;;;;;;;14.90;9.68;;;4.30;99.90;;;;;;5055043;28;20061;-76
2022/03/20 04:02:40;;;;;;;16.45;9.75;;;4.30;99.90;;;;;;5054670;28;20163;-76
2022/03/20 04:05:07;;;;;;;14.67;9.70;;;4.30;99.90;;;;;;5053427;28;20445;-76
2022/03/20 04:07:34;;;;;;;15.20;10.27;;;4.30;99.90;;;;;;5053467;28;20048;-76
2022/03/20 04:10:03;;;;;;;18.52;10.95;;;4.20;99.90;;;;;;5055071;28;20071;-76
2022/03/20 04:12:29;;;;;;;14.60;9.50;;;4.20;99.90;;;;;;5054254;28;20041;-76
2022/03/20 04:15:00;;;;;;;15.37;9.50;;;4.20;99.90;;;;;;5052995;28;20045;-76
2022/03/20 04:17:26;;;;;;;15.32;10.60;;;4.20;99.90;;;;;;5053462;28;20049;-76
2022/03/20 04:19:51;;;;;;;18.37;10.57;;;4.20;99.90;;;;;;5054916;28;20041;-76
2022/03/20 04:22:18;;;;;;;16.83;9.83;;;4.10;99.90;;;;;;5054668;28;20111;-76
2022/03/20 04:24:44;;;;;;;17.20;10.40;;;4.20;99.90;;;;;;5054308;28;20049;-77
2022/03/20 04:27:11;;;;;;;17.37;10.30;;;4.20;99.90;;;;;;5054652;28;20146;-76
2022/03/20 04:29:37;;;;;;;16.88;10.43;;;4.10;99.90;;;;;;5054086;28;20049;-77
2022/03/20 04:32:03;;;;;;;18.57;10.77;;;4.00;99.90;;;;;;5054476;28;20055;-76
2022/03/20 04:34:29;;;;;;;18.08;11.27;;;4.00;99.90;;;;;;5053031;28;20122;-76
2022/03/20 04:36:56;;;;;;;16.50;11.07;;;4.00;99.90;;;;;;5054647;28;20045;-76
2022/03/20 04:39:23;;;;;;;17.15;10.95;;;4.00;99.90;;;;;;5053063;28;20045;-76
2022/03/20 04:41:49;;;;;;;19.38;10.60;;;4.00;99.90;;;;;;5054094;28;20048;-76
2022/03/20 04:44:15;;;;;;;18.40;11.43;;;4.10;99.90;;;;;;5053307;28;20090;-76
2022/03/20 04:46:41;;;;;;;19.75;11.32;;;4.00;99.90;;;;;;5053989;28;20079;-76
2022/03/20 05:00:06;;;;;;;19.20;12.00;;;3.90;99.90;;;;;;5053729;28;20085;-75
2022/03/20 05:02:32;;;;;;;17.30;12.23;;;4.00;99.90;;;;;;5053699;28;20053;-76
2022/03/20 05:04:57;;;;;;;20.13;11.90;;;3.90;99.90;;;;;;5054523;28;20045;-76
2022/03/20 05:07:23;;;;;;;19.13;11.13;;;3.90;99.90;;;;;;5053562;28;20045;-76
2022/03/20 05:15:17;;;;;;;18.55;10.75;;;3.80;99.90;;;;;;5053694;28;20081;-76
2022/03/20 05:17:43;;;;;;;17.88;11.55;;;3.80;99.90;;;;;;5052673;28;20056;-76
2022/03/20 05:20:10;;;;;;;16.33;11.73;;;3.80;99.90;;;;;;5053648;28;20037;-76
2022/03/20 05:22:39;;;;;;;18.90;11.93;;;3.90;99.90;;;;;;5052919;28;20497;-76
2022/03/20 05:25:10;;;;;;;18.15;12.30;;;3.90;99.90;;;;;;5051890;28;20485;-76
2022/03/20 05:27:37;;;;;;;16.42;11.98;;;3.80;99.90;;;;;;5052065;28;20091;-76
2022/03/20 05:30:05;;;;;;;16.13;12.20;;;3.80;99.90;;;;;;5052993;28;20084;-76
2022/03/20 05:32:32;;;;;;;19.70;11.98;;;3.80;99.90;;;;;;5051467;28;20051;-77
2022/03/20 05:34:59;;;;;;;18.75;11.20;;;3.80;99.90;;;;;;5053425;28;20045;-76
2022/03/20 05:37:25;;;;;;;19.23;12.00;;;3.80;99.90;;;;;;5052042;28;20048;-76
2022/03/20 05:39:50;;;;;;;17.20;11.73;;;3.80;99.90;;;;;;5052985;28;20127;-76
2022/03/20 05:42:16;;;;;;;19.20;12.17;;;3.80;99.90;;;;;;5052180;28;20049;-75
2022/03/20 05:44:46;;;;;;;19.33;12.13;;;3.90;99.90;;;;;;5035050;28;20040;-76
2022/03/20 05:47:12;;;;;;;20.10;12.00;;;3.80;99.90;;;;;;5053072;28;20053;-76
2022/03/20 05:49:38;;;;;;;18.88;12.35;;;3.80;99.90;;;;;;5052690;28;20127;-76
2022/03/20 05:52:06;;;;;;;18.63;12.30;;;;;;;;;;5052690;28;20485;-75
2022/03/20 05:54:32;;;;;;;18.00;11.95;;;;;;;;;;5051837;28;20091;-82
2022/03/20 05:59:43;;;;;;;21.25;13.18;;;;;;;;;;5052505;28;20484;-76
2022/03/20 06:02:09;;;;;;;21.58;12.95;;;;;;;;;;5053414;28;20408;-76
2022/03/20 06:04:35;;;;;;;17.25;12.02;;;;;;;;;;5051692;28;20461;-76
2022/03/20 06:07:02;;;;;;;18.85;12.65;;;;;;;;;;5052864;28;20052;-76
2022/03/20 06:09:28;;;;;;;22.15;12.68;;;;;;;;;;5052763;28;20114;-76
2022/03/20 06:11:55;;;;;;;19.13;13.23;;;;;;;;;;5052435;28;20056;-76
2022/03/20 06:14:21;;;;;;;18.60;12.57;;;;;;;;;;5052758;28;20128;-76
2022/03/20 06:16:48;;;;;;;22.02;12.43;;;;;;;;;;5051212;28;20481;-76
2022/03/20 06:19:15;;;;;;;22.02;12.50;;;;;;;;;;5051639;28;20416;-76
2022/03/20 06:21:42;;;;;;;19.85;13.73;;;;;;;;;;5052361;28;20056;-76
2022/03/20 06:24:08;;;;;;;20.67;12.25;;;;;;;;;;5051812;28;20370;-76
2022/03/20 06:26:35;;;;;;;24.20;13.70;;;;;;;;;;5052593;28;20374;-81
2022/03/20 06:29:01;;;;;;;22.83;14.30;;;;;;;;;;5055903;28;20049;-76
2022/03/20 06:31:27;;;;;;;21.05;13.48;;;;;;;;;;5056648;28;20045;-76
2022/03/20 06:33:54;;;;;;;20.85;13.25;;;;;;;;;;5056278;28;20056;-76
2022/03/20 06:36:20;;;;;;;19.98;13.63;;;;;;;;;;5056561;28;20091;-76
2022/03/20 06:38:46;;;;;;;18.33;13.77;;;;;;;;;;5056223;28;20088;-76
2022/03/20 06:41:13;;;;;;;20.35;13.50;;;;;;;;;;5056681;28;20102;-76
2022/03/20 06:43:39;;;;;;;19.08;13.23;;;;;;;;;;5055047;28;20055;-76
2022/03/20 06:46:06;;;;;;;22.13;13.30;;;;;;;;;;5056385;28;20048;-76
2022/03/20 06:48:33;;;;;;;16.00;12.10;;;;;;;;;;5055123;28;20068;-76
2022/03/20 06:50:59;;;;;;;17.88;12.60;;;;;;;;;;5056016;28;20052;-76
2022/03/20 06:53:25;;;;;;;19.45;13.35;;;;;;;;;;5056255;28;20194;-76
2022/03/20 06:55:51;;;;;;;20.40;13.20;;;;;;;;;;5055099;28;20081;-76
2022/03/20 06:58:18;;;;;;;20.52;13.60;;;;;;;;;;5056147;28;20052;-76
2022/03/20 07:00:46;;;;;;;24.55;14.65;;;;;;;;;;5055893;28;20061;-76
2022/03/20 07:03:12;;;;;;;21.75;13.35;;;;;;;;;;5055153;28;20672;-76
2022/03/20 07:05:39;;;;;;;21.80;14.00;;;4.20;97.30;;;;;;5055926;28;20132;-82
2022/03/20 07:08:06;;;;;;;19.48;13.10;;;4.20;97.70;;;;;;5056097;28;20049;-76
2022/03/20 07:10:33;;;;;;;22.90;14.13;;;4.40;98.00;;;;;;5057317;28;20052;-77
2022/03/20 07:15:45;;;;;;;21.60;13.88;;;5.70;99.30;;;;;;5054995;28;20481;-76
2022/03/20 07:18:16;;;;;;;18.45;13.38;;;6.00;90.50;;;;;;5056129;28;20049;-77
2022/03/20 07:20:44;;;;;;;19.48;13.45;;;6.10;91.10;;;;;;5054696;28;20049;-77
2022/03/20 07:23:11;;;;;;;20.92;13.80;;;5.80;88.30;;;;;;5054568;28;20123;-76
2022/03/20 07:31:07;;;;;;;22.67;14.20;;;5.90;86.70;;;;;;5056053;28;20130;-77
2022/03/20 07:33:33;;;;;;;18.73;13.83;;;6.00;84.90;;;;;;5054717;28;20455;-78
2022/03/20 07:36:02;;;;;;;23.83;14.60;;;6.30;84.20;;;;;;5053736;28;20052;-77
2022/03/20 07:38:28;;;;;;;21.17;14.02;;;6.80;90.70;;;;;;5037656;28;20102;-77
2022/03/20 07:40:54;;;;;;;19.47;13.20;;;6.80;87.70;;;;;;5054627;28;20131;-76
2022/03/20 07:43:20;;;;;;;20.25;13.55;;;6.60;76.70;;;;;;5054253;28;20049;-75
2022/03/20 07:45:46;;;;;;;20.87;14.07;;;6.20;77.20;;;;;;5053775;28;20060;-77
2022/03/20 07:48:13;;;;;;;20.95;14.32;;;6.00;76.90;;;;;;5055316;28;20073;-77
2022/03/20 07:50:40;;;;;;;21.13;13.63;;;5.90;78.60;;;;;;5055187;28;20053;-76
2022/03/20 07:53:06;;;;;;;19.27;13.05;;;5.90;80.10;;;;;;5054969;28;20056;-77
2022/03/20 07:55:32;;;;;;;21.58;14.02;;;6.00;80.30;;;;;;5055159;28;20041;-77
2022/03/20 07:57:58;;;;;;;21.75;14.27;;;6.00;79.30;;;;;;5054870;28;20052;-77
2022/03/20 08:00:24;;;;;;;21.60;15.03;;;6.00;77.80;;;;;;5055199;28;20071;-77
2022/03/20 08:02:53;;;;;;;20.77;14.33;;;6.00;78.30;;;;;;5054399;28;20103;-77
2022/03/20 08:05:20;;;;;;;20.67;14.68;;;6.10;76.30;;;;;;5054967;28;20774;-77
2022/03/20 08:07:46;;;;;;;21.58;13.88;;;6.10;75.90;;;;;;5053679;28;20052;-78
2022/03/20 08:10:13;;;;;;;21.58;14.73;;;6.20;75.90;;;;;;5053695;28;20084;-77
2022/03/20 08:12:39;;;;;;;22.05;13.68;;;6.20;74.60;;;;;;5053723;28;20106;-77
2022/03/20 08:15:07;;;;;;;21.45;14.32;;;6.20;75.50;;;;;;5054564;28;20049;-77
2022/03/20 08:17:42;;;;;;;21.52;14.63;;;6.30;74.00;;;;;;5054668;28;20053;-76
2022/03/20 08:20:09;;;;;;;20.98;14.75;;;6.20;74.40;;;;;;5054418;28;20044;-76
2022/03/20 08:22:35;;;;;;;21.73;13.90;;;6.20;73.90;;;;;;5054750;28;20443;-76
2022/03/20 08:25:02;;;;;;;20.23;15.13;;;6.10;73.40;;;;;;5054419;28;20059;-74
2022/03/20 08:27:28;;;;;;;22.17;15.23;;;6.10;73.60;;;;;;5053327;28;20053;-75
2022/03/20 08:29:57;;;;;;;20.80;14.90;;;6.10;75.00;;;;;;5053057;28;20083;-75
2022/03/20 08:32:23;;;;;;;22.00;15.10;;;6.10;73.80;;;;;;5056793;28;20053;-75
2022/03/20 08:34:50;;;;;;;23.33;14.57;;;6.10;73.60;;;;;;5053130;28;20357;-77
2022/03/20 08:37:16;;;;;;;21.92;15.55;;;6.20;72.70;;;;;;5053210;28;20040;-76
2022/03/20 08:39:41;;;;;;;22.90;15.65;;;6.30;73.20;;;;;;5054001;28;20550;-75
2022/03/20 08:42:07;;;;;;;24.27;14.47;;;6.30;72.20;;;;;;5052843;28;20155;-75
2022/03/20 08:44:33;;;;;;;20.60;14.93;;;;;;;;;;5053931;28;20045;-74
2022/03/20 08:47:00;;;;;;;23.65;14.65;;;6.40;71.30;;;;;;5053804;28;20751;-75
2022/03/20 08:49:26;;;;;;;24.23;15.85;;;6.40;72.30;;;;;;5052885;28;20052;-75
2022/03/20 08:51:51;;;;;;;22.63;15.37;;;6.50;71.40;;;;;;5051881;28;20377;-74
2022/03/20 08:54:17;;;;;;;21.23;15.53;;;6.60;70.40;;;;;;5052861;28;20167;-75
2022/03/20 08:56:43;;;;;;;23.20;15.77;;;6.60;70.50;;;;;;5054000;28;20114;-75
2022/03/20 08:59:08;;;;;;;23.73;15.33;;;6.60;70.10;;;;;;5053689;28;20041;-75
2022/03/20 09:01:35;;;;;;;22.00;15.60;;;6.60;70.20;;;;;;5053755;28;20084;-74
2022/03/20 09:04:01;;;;;;;22.58;16.58;;;6.60;70.30;;;;;;5053628;28;20060;-75
2022/03/20 09:06:28;;;;;;;26.33;16.33;;;6.60;69.90;;;;;;5052334;28;20041;-75
2022/03/20 09:08:53;;;;;;;20.05;15.45;;;6.80;70.20;;;;;;5052021;28;20048;-76
2022/03/20 09:11:19;;;;;;;25.90;15.33;;;6.80;70.40;;;;;;5036194;28;20040;-75
2022/03/20 09:13:46;;;;;;;21.20;15.47;;;6.80;69.40;;;;;;5053640;28;20048;-75
2022/03/20 09:19:00;;;;;;;24.58;16.00;;;6.90;68.80;;;;;;5053571;28;20468;-76
2022/03/20 09:21:36;;;;;;;22.73;15.63;;;6.90;68.40;;;;;;5052440;28;20493;-75
2022/03/20 09:24:04;;;;;;;26.08;15.05;;;7.00;69.20;;;;;;5053316;28;20432;-76
2022/03/20 09:26:30;;;;;;;20.92;16.77;;;6.90;68.50;;;;;;5053344;28;20048;-75
2022/03/20 09:28:56;;;;;;;24.92;15.98;;;6.90;68.40;;;;;;5053115;28;20212;-74
2022/03/20 09:31:22;;;;;;;24.08;16.17;;;7.00;67.90;;;;;;5053466;28;20432;-75
2022/03/20 09:33:49;;;;;;;22.92;15.88;;;7.10;66.50;;;;;;5053544;28;20059;-75
2022/03/20 09:36:15;;;;;;;23.70;16.75;;;7.20;66.30;;;;;;5051863;28;20044;-75
2022/03/20 09:38:41;;;;;;;22.60;16.87;;;7.30;66.80;;;;;;5037478;28;20041;-75
2022/03/20 09:41:09;;;;;;;21.53;15.30;;;7.50;71.40;;;;;;5051991;28;20508;-73
2022/03/20 09:43:42;;;;;;;22.25;16.52;;;7.50;65.70;;;;;;5047193;28;20045;-78
2022/03/20 09:46:09;;;;;;;22.95;17.30;;;7.50;63.80;;;;;;5043375;28;20048;-77
2022/03/20 09:48:35;;;;;;;22.35;16.60;;;7.60;63.70;;;;;;5034441;28;20580;-76
2022/03/20 09:51:03;;;;;;;23.15;16.73;;;7.60;64.40;;;;;;5022940;28;20042;-77
2022/03/20 09:53:29;;;;;;;26.67;17.38;;;7.60;62.80;;;;;;5025532;28;20061;-77
2022/03/20 09:55:55;;;;;;;24.45;17.25;;;7.70;63.10;;;;;;5038548;28;20063;-82
2022/03/20 09:58:25;;;;;;;25.00;17.13;;;7.70;62.40;;;;;;5033443;28;20041;-70
2022/03/20 10:00:52;;;;;;;23.45;16.45;;;7.70;60.80;;;;;;5032848;28;20081;-73
2022/03/20 10:03:21;;;;;;;24.73;17.13;;;7.80;61.80;;;;;;5032651;28;20389;-73
2022/03/20 10:06:06;;;;;;;24.38;16.67;;;7.90;62.50;;;;;;5033097;28;20132;-73
2022/03/20 10:08:31;;;;;;;24.63;16.90;;;8.00;61.30;;;;;;5032979;28;20066;-80
2022/03/20 10:11:12;;;;;;;25.77;16.67;;;8.10;60.10;;;;;;5032637;28;20413;-79
2022/03/20 10:13:38;;;;;;;26.00;17.08;;;8.10;59.50;;;;;;5033106;28;20378;-75
2022/03/20 10:16:17;;;;;;;26.13;17.27;;;8.00;60.40;;;;;;5031488;28;20099;-80
2022/03/20 10:18:43;;;;;;;26.35;17.63;;;8.00;59.50;;;;;;5032058;28;20057;-79
2022/03/20 10:21:09;;;;;;;25.40;16.60;;;8.10;59.70;;;;;;5031273;28;20050;-79
2022/03/20 10:23:45;;;;;;;23.38;16.88;;;8.10;60.50;;;;;;4998644;28;20041;-77
2022/03/20 10:26:19;;;;;;;26.77;17.27;;;8.10;59.90;;;;;;5031357;28;20072;-80
2022/03/20 10:28:55;;;;;;;24.52;17.45;;;8.20;59.70;;;;;;5032841;28;20041;-79
2022/03/20 10:31:21;;;;;;;24.65;17.20;;;8.30;58.80;;;;;;5031253;28;20046;-81
2022/03/20 10:34:13;;;;;;;22.80;17.30;;;8.30;59.50;;;;;;5032666;28;20100;-78
2022/03/20 10:36:41;;;;;;;26.38;17.73;;;8.40;59.00;;;;;;5028673;28;20064;-79
2022/03/20 10:39:12;;;;;;;26.20;17.17;;;8.40;58.20;;;;;;5032335;28;20136;-81
2022/03/20 10:41:41;;;;;;;25.17;18.13;;;8.50;58.90;;;;;;5031686;28;20168;-80
2022/03/20 10:44:18;;;;;;;28.08;18.90;;;8.60;58.00;;;;;;4999254;28;20402;-81
2022/03/20 10:46:57;;;;;;;25.25;17.25;;;8.70;56.70;;;;;;5032335;28;20477;-79
2022/03/20 10:49:24;;;;;;;24.55;16.83;;;8.70;57.70;;;;;;5032316;28;20087;-78
2022/03/20 10:52:18;;;;;;;27.02;18.83;;;8.70;56.70;;;;;;5032783;28;20434;-73
2022/03/20 10:54:45;;;;;;;23.90;18.17;;;8.80;57.10;;;;;;5032633;28;20049;-79
2022/03/20 10:57:14;;;;;;;23.38;18.25;;;8.80;55.90;;;;;;5030912;28;20057;-80
2022/03/20 10:59:41;;;;;;;25.60;18.33;;;8.80;55.00;;;;;;5032425;28;20037;-84
2022/03/20 11:02:20;;;;;;;22.73;18.40;;;8.80;55.60;;;;;;5032308;28;20054;-85
2022/03/20 11:04:46;;;;;;;29.15;18.23;;;9.00;55.40;;;;;;5032670;28;20077;-83
2022/03/20 11:07:16;;;;;;;28.03;19.43;;;9.00;55.60;;;;;;5032094;28;20175;-82
2022/03/20 11:09:49;;;;;;;25.95;19.08;;;9.10;56.10;;;;;;5031317;28;20046;-80
2022/03/20 11:12:23;;;;;;;27.75;18.05;;;9.10;55.30;;;;;;5031156;28;20053;-77
2022/03/20 11:14:49;;;;;;;25.42;18.52;;;9.10;55.40;;;;;;5033073;28;20050;-77
2022/03/20 11:17:19;;;;;;;25.38;18.23;;;9.20;55.10;;;;;;5035794;28;20092;-75
2022/03/20 11:19:52;;;;;;;25.90;19.73;;;9.30;55.60;;;;;;5037672;28;20492;-80
2022/03/20 11:22:22;;;;;;;25.48;19.05;;;9.40;70.10;;;;;;5035565;28;20045;-72
2022/03/20 11:24:52;;;;;;;27.23;20.30;;;9.40;75.20;;;;;;5036104;28;20103;-71
2022/03/20 11:27:23;;;;;;;24.88;19.30;;;9.50;68.20;;;;;;5034578;28;20053;-75
2022/03/20 11:29:51;;;;;;;28.08;19.10;;;9.40;52.90;;;;;;5035175;28;20458;-75
2022/03/20 11:32:21;;;;;;;25.05;18.50;;;9.50;53.70;;;;;;5035489;28;20088;-74
2022/03/20 11:34:48;;;;;;;24.98;18.55;;;9.50;52.80;;;;;;5035776;28;20527;-80
2022/03/20 11:37:15;;;;;;;25.43;19.60;;;9.60;54.30;;;;;;5034513;28;20057;-82
2022/03/20 11:40:09;;;;;;;30.03;20.03;;;9.60;52.90;;;;;;5035659;28;20609;-73
2022/03/20 11:42:35;;;;;;;22.60;19.10;;;9.70;52.00;;;;;;5027594;28;20304;-77
2022/03/20 11:45:04;;;;;;;23.53;18.60;;;9.70;52.30;;;;;;5034418;28;20845;-76
2022/03/20 11:47:41;;;;;;;26.90;20.10;;;9.80;52.40;;;;;;5034129;28;20096;-74
2022/03/20 11:50:17;;;;;;;26.92;20.50;;;;;;;;;;5035254;28;20304;-80
2022/03/20 11:52:45;;;;;;;28.50;20.63;;;9.90;52.30;;;;;;5035192;28;20056;-74
2022/03/20 11:55:29;;;;;;;24.43;18.07;;;9.90;52.90;;;;;;5033884;28;20292;-74
2022/03/20 11:57:56;;;;;;;25.63;19.60;;;9.90;51.80;;;;;;5035309;28;20618;-74
2022/03/20 12:00:28;;;;;;;27.60;20.37;;;10.00;51.80;;;;;;5034513;28;20771;-74
2022/03/20 12:03:00;;;;;;;27.67;20.20;;;10.10;52.20;;;;;;5035369;28;20300;-74
2022/03/20 12:05:41;;;;;;;28.73;19.60;;;10.10;52.30;;;;;;5033613;28;20310;-74
2022/03/20 12:08:45;;;;;;;28.57;20.90;;;10.10;51.60;;;;;;5017055;28;20292;-75
2022/03/20 12:11:41;;;;;;;25.63;18.67;;;10.20;51.40;;;;;;5034641;28;20311;-74
2022/03/20 12:14:40;;;;;;;29.67;19.33;;;10.20;51.60;;;;;;5034820;28;20450;-74
2022/03/20 12:17:07;;;;;;;26.00;19.47;;;10.30;51.00;;;;;;4980657;28;20780;-73
2022/03/20 12:19:37;;;;;;;27.33;20.10;;;10.30;51.80;;;;;;5034404;28;20276;-71
2022/03/20 12:22:05;;;;;;;31.77;20.77;;;10.20;51.00;;;;;;5033514;28;20295;-72
2022/03/20 12:24:45;;;;;;;29.37;19.07;;;10.30;51.00;;;;;;5032964;28;20320;-73
2022/03/20 12:27:22;;;;;;;27.13;20.23;;;10.30;51.00;;;;;;5034457;28;20779;-81
2022/03/20 12:30:03;;;;;;;25.40;20.10;;;10.30;50.80;;;;;;5034531;28;20800;-73
2022/03/20 12:32:48;;;;;;;30.20;20.37;;;10.30;51.40;;;;;;5033403;28;20307;-73
2022/03/20 12:35:23;;;;;;;29.73;19.77;;;10.40;51.50;;;;;;5033238;28;20305;-73
2022/03/20 12:37:49;;;;;;;27.33;19.20;;;10.30;51.00;;;;;;5034751;28;20299;-72
2022/03/20 12:40:21;;;;;;;23.83;19.93;;;10.30;50.90;;;;;;5032851;28;20057;-73
2022/03/20 12:43:13;;;;;;;27.83;20.63;;;10.40;51.40;;;;;;5034476;28;20387;-72
2022/03/20 12:45:41;;;;;;;27.77;19.50;;;10.40;51.10;;;;;;5034470;28;20315;-72
2022/03/20 12:48:13;;;;;;;27.50;20.97;;;10.50;51.50;;;;;;5034231;28;20292;-72
2022/03/20 12:50:42;;;;;;;27.00;19.63;;;10.50;50.10;;;;;;5034377;28;20375;-72
2022/03/20 12:53:21;;;;;;;27.70;20.43;;;10.50;51.10;;;;;;5033770;28;20795;-72
2022/03/20 12:55:55;;;;;;;26.73;19.30;;;10.50;50.70;;;;;;5032579;28;20755;-72
2022/03/20 12:58:21;;;;;;;26.97;20.70;;;10.50;50.30;;;;;;5033831;28;20280;-72
2022/03/20 13:00:47;;;;;;;24.43;18.83;;;10.50;51.10;;;;;;5032871;28;20280;-72
2022/03/20 13:03:18;;;;;;;27.43;20.03;;;10.60;51.40;;;;;;5034072;28;20311;-71
2022/03/20 13:05:58;;;;;;;26.40;20.07;;;10.70;50.60;;;;;;5032924;28;20093;-72
2022/03/20 13:08:26;;;;;;;28.53;19.80;;;10.80;51.30;;;;;;5033466;28;20287;-72
2022/03/20 13:10:54;;;;;;;25.70;19.67;;;11.00;51.00;;;;;;5033899;28;20369;-71
2022/03/20 13:13:20;;;;;;;27.43;19.90;;;11.10;49.90;;;;;;5033499;28;20319;-72
2022/03/20 13:15:50;;;;;;;26.03;19.47;;;11.10;49.20;;;;;;5034097;28;20345;-71
2022/03/20 13:18:16;;;;;;;25.60;19.90;;;11.20;50.20;;;;;;5033548;28;20283;-83
2022/03/20 13:20:45;;;;;;;25.67;19.90;;;11.40;50.50;;;;;;5033721;28;20287;-71
2022/03/20 13:23:16;;;;;;;27.50;20.53;;;11.50;49.90;;;;;;5032539;28;20771;-71
2022/03/20 13:25:57;;;;;;;27.70;20.97;;;11.50;49.30;;;;;;5033709;28;20280;-71
2022/03/20 13:28:34;;;;;;;27.50;20.00;;;11.50;48.50;;;;;;5032341;28;20306;-73
2022/03/20 13:31:10;;;;;;;24.23;18.13;;;11.40;48.70;;;;;;5033522;28;20284;-73